Latest Weather Observations for Merriwa

IDN60801

Issued at 8:32 am EST Sunday 1 May 2016 (issued every 30 minutes, with the page automatically refreshed every 10 minutes)

About weather observations | Map of weather stations | Latest weather observations for NSW | Other Formats
Station Details ID: 061287 Name: MERRIWA (ROSCOMMON) Lat: -32.19 Lon: 150.17 Height: 375.0 m
Data from the previous 72 hours. | See also: Recent months at Merriwa
Date/Time
EST
Temp
°C
App
Temp
°C
Dew
Point
Rel
Hum
%
Delta-T
°C
Wind Press
QNH
hPa
Press
MSL
hPa
Rain
since 9 am
mm
Dir
 
Spd
km/h
Gust
km/h
Spd
kts
Gust
kts
01/08:00am 17.2 16.3 16.9 98 0.2 NW 17 24 9 13 1018.8 1018.2 41.8
01/07:30am 17.1 16.6 16.8 98 0.2 W 15 22 8 12 1018.4 1017.8 40.4
01/07:00am 17.0 15.5 16.8 99 0.1 NW 20 30 11 16 1018.5 1017.9 39.0
01/06:30am 16.6 15.5 16.4 99 0.1 NNW 17 22 9 12 1018.3 1017.7 35.8
01/06:15am 16.6 15.5 16.4 99 0.1 NW 17 28 9 15 1018.2 1017.6 34.0
01/06:00am 16.6 15.9 16.4 99 0.1 W 15 20 8 11 1018.1 1017.5 32.6
01/05:32am 16.3 14.1 16.0 98 0.2 W 22 41 12 22 1017.6 1016.9 25.0
01/05:30am 16.3 14.5 16.0 98 0.2 W 20 41 11 22 1017.7 1017.0 24.8
01/05:00am 15.8 15.9 15.6 99 0.1 NW 9 13 5 7 1016.2 1015.6 20.4
01/04:30am 15.8 16.5 15.6 99 0.1 WSW 6 9 3 5 1015.4 1014.8 20.2
01/04:00am 16.3 18.3 16.1 99 0.1 CALM 0 6 0 3 1015.6 1015.0 20.2
01/03:30am 16.2 17.8 16.0 99 0.1 WSW 2 7 1 4 1015.8 1015.2 20.2
01/03:00am 16.2 17.8 16.0 99 0.1 WSW 2 6 1 3 1016.0 1015.4 20.2
01/02:30am 16.0 17.9 15.8 99 0.1 CALM 0 0 0 0 1016.4 1015.8 20.0
01/02:00am 15.8 16.3 15.6 99 0.1 WSW 7 9 4 5 1016.6 1016.0 20.0
01/01:30am 15.8 17.6 15.6 99 0.1 CALM 0 0 0 0 1016.8 1016.2 20.0
01/01:00am 15.9 17.8 15.7 99 0.1 CALM 0 0 0 0 1017.0 1016.4 20.0
01/12:30am 15.6 17.4 15.4 99 0.1 CALM 0 0 0 0 1017.4 1016.7 20.0
01/12:00am 15.4 15.8 15.2 99 0.1 SW 7 9 4 5 1017.7 1017.0 20.0
 
Date/Time
EST
Temp
°C
App
Temp
°C
Dew
Point
Rel
Hum
%
Delta-T
°C
Wind Press
QNH
hPa
Press
MSL
hPa
Rain
since 9 am
mm
Dir
 
Spd
km/h
Gust
km/h
Spd
kts
Gust
kts
30/11:30pm 15.3 15.8 15.1 99 0.1 SSE 6 7 3 4 1018.0 1017.4 20.0
30/11:00pm 15.5 17.2 15.3 99 0.1 CALM 0 0 0 0 1018.3 1017.7 19.8
30/10:30pm 15.6 16.0 15.4 99 0.1 SSE 7 9 4 5 1018.7 1018.1 19.8
30/10:00pm 15.1 15.5 14.8 98 0.2 E 6 7 3 4 1019.2 1018.6 19.8
30/09:45pm 15.2 15.7 14.9 98 0.2 E 6 7 3 4 1019.2 1018.6 19.8
30/09:30pm 15.1 15.5 14.8 98 0.2 E 6 7 3 4 1019.3 1018.7 19.8
30/09:14pm 15.1 15.5 14.8 98 0.2 E 6 7 3 4 1019.1 1018.5 19.8
30/09:00pm 15.9 16.6 15.6 98 0.2 E 6 7 3 4 1019.2 1018.6 19.8
30/08:48pm 15.9 16.4 15.6 98 0.2 ENE 7 9 4 5 1019.2 1018.6 19.8
30/08:30pm 15.8 16.3 15.5 98 0.2 NNE 7 7 4 4 1019.2 1018.6 19.8
30/08:00pm 16.6 18.0 16.3 98 0.2 NNE 4 7 2 4 1019.4 1018.8 19.8
30/07:30pm 17.0 17.6 16.7 98 0.2 NNE 9 9 5 5 1019.2 1018.6 19.8
30/07:00pm 17.3 18.0 17.0 98 0.2 N 9 11 5 6 1019.0 1018.4 19.8
30/06:30pm 17.1 17.7 16.8 98 0.2 NE 9 11 5 6 1018.9 1018.3 19.8
30/06:00pm 17.3 18.4 17.0 98 0.2 SSE 7 9 4 5 1018.7 1018.1 19.8
30/05:30pm 18.0 19.5 17.7 98 0.2 SSE 6 7 3 4 1018.7 1018.1 19.8
30/05:00pm 18.3 19.8 17.7 96 0.4 SSE 6 7 3 4 1018.6 1018.0 19.8
30/04:46pm 18.5 20.1 17.9 96 0.4 SSE 6 7 3 4 1018.7 1018.1 19.8
30/04:30pm 18.6 20.0 17.9 96 0.4 SSE 7 9 4 5 1018.5 1017.9 19.8
30/04:15pm 18.6 21.0 17.9 96 0.4 S 2 7 1 4 1018.5 1017.9 19.8
30/04:00pm 18.6 20.0 17.8 95 0.5 S 7 9 4 5 1018.4 1017.8 19.8
30/03:48pm 18.5 19.5 17.7 95 0.5 S 9 11 5 6 1018.5 1017.9 19.8
30/03:30pm 18.5 19.7 18.2 98 0.2 S 9 11 5 6 1018.6 1018.0 19.8
30/03:00pm 18.4 19.5 17.9 97 0.3 S 9 13 5 7 1018.4 1017.8 19.8
30/02:30pm 18.4 19.4 17.8 96 0.4 SSE 9 13 5 7 1018.4 1017.8 19.8
30/02:00pm 19.0 21.7 18.7 98 0.2 NNW 2 7 1 4 1018.6 1018.0 19.8
30/01:53pm 18.4 20.9 18.1 98 0.2 WSW 2 7 1 4 1018.6 1018.0 19.8
30/01:30pm 17.5 17.5 17.2 98 0.2 NNE 13 17 7 9 1018.5 1017.9 19.8
30/01:08pm 17.1 17.7 16.8 98 0.2 NNE 9 17 5 9 1018.9 1018.3 19.6
30/01:00pm 16.9 18.0 16.6 98 0.2 NNE 6 9 3 5 1019.3 1018.7 19.2
30/12:30pm 16.6 17.4 16.3 98 0.2 NNE 7 9 4 5 1019.7 1019.1 19.2
30/12:25pm 16.6 17.4 16.3 98 0.2 NNE 7 9 4 5 1019.8 1019.2 19.2
30/12:00pm 16.4 18.4 16.1 98 0.2 CALM 0 0 0 0 1020.4 1019.8 16.8
30/11:30am 16.3 17.5 16.0 98 0.2 NNE 4 7 2 4 1020.9 1020.3 14.8
30/11:00am 16.6 17.0 16.3 98 0.2 NE 9 11 5 6 1021.2 1020.6 11.4
30/10:30am 16.3 17.0 16.0 98 0.2 NE 7 11 4 6 1021.6 1021.0 10.4
30/10:00am 15.5 16.1 15.2 98 0.2 NW 6 7 3 4 1021.9 1021.3 9.4
30/09:30am 15.0 14.8 14.7 98 0.2 WNW 9 11 5 6 1022.1 1021.5 4.8
30/09:00am 14.7 14.1 13.4 92 0.7 W 9 13 5 7 1022.3 1021.8 2.2
30/08:30am 17.3 17.9 13.0 76 2.4 NNE 2 7 1 4 1021.9 1021.3 0.0
30/08:00am 16.6 16.0 12.4 76 2.3 NNE 7 7 4 4 1021.5 1020.9 0.0
30/07:30am 15.2 14.3 11.2 77 2.2 NE 7 9 4 5 1021.3 1020.7 0.0
30/07:00am 14.4 13.1 11.2 81 1.7 NE 9 11 5 6 1020.9 1020.3 0.0
30/06:30am 14.3 14.4 11.6 84 1.5 WSW 2 6 1 3 1020.7 1020.1 0.0
30/06:00am 13.9 13.4 10.9 82 1.6 WSW 4 6 2 3 1020.5 1019.9 0.0
30/05:30am 14.0 12.6 10.8 81 1.7 WSW 9 13 5 7 1019.9 1019.3 0.0
30/05:00am 13.9 12.7 11.6 86 1.2 W 9 13 5 7 1019.9 1019.3 0.0
30/04:30am 12.3 11.0 9.9 85 1.3 W 7 9 4 5 1019.6 1019.0 0.0
30/04:00am 11.6 10.3 9.2 85 1.2 W 6 7 3 4 1019.4 1018.8 0.0
30/03:30am 11.8 10.4 9.4 85 1.2 W 7 7 4 4 1019.1 1018.5 0.0
30/03:00am 11.8 10.2 8.6 81 1.6 W 7 9 4 5 1019.3 1018.7 0.0
30/02:30am 13.1 13.1 9.7 80 1.8 CALM 0 0 0 0 1019.1 1018.5 0.0
30/02:00am 12.6 12.4 9.1 79 1.8 CALM 0 0 0 0 1019.2 1018.6 0.0
30/01:30am 13.7 13.3 9.9 78 2.0 W 2 6 1 3 1019.5 1018.9 0.0
30/01:00am 14.6 14.7 10.0 74 2.4 CALM 0 0 0 0 1019.7 1019.1 0.0
30/12:30am 15.5 15.7 10.5 72 2.7 CALM 0 0 0 0 1020.1 1019.5 0.0
30/12:00am 15.8 16.1 10.8 72 2.7 CALM 0 0 0 0 1020.4 1019.8 0.0
 
Date/Time
EST
Temp
°C
App
Temp
°C
Dew
Point
Rel
Hum
%
Delta-T
°C
Wind Press
QNH
hPa
Press
MSL
hPa
Rain
since 9 am
mm
Dir
 
Spd
km/h
Gust
km/h
Spd
kts
Gust
kts
29/11:30pm 15.8 16.0 10.6 71 2.8 CALM 0 0 0 0 1020.6 1020.0 0.0
29/11:00pm 15.9 15.8 10.9 72 2.7 W 2 6 1 3 1020.6 1020.0 0.0
29/10:30pm 16.4 15.5 10.7 69 3.1 W 6 7 3 4 1020.6 1020.0 0.0
29/10:00pm 15.8 14.7 10.1 69 3.0 W 6 6 3 3 1020.9 1020.3 0.0
29/09:30pm 17.2 17.5 11.0 67 3.4 CALM 0 0 0 0 1020.9 1020.3 0.0
29/09:00pm 15.9 15.0 9.1 64 3.6 WNW 4 7 2 4 1020.8 1020.2 0.0
29/08:30pm 17.9 16.4 10.5 62 4.0 NNE 9 11 5 6 1020.4 1019.8 0.0
29/08:00pm 17.7 16.4 9.8 60 4.2 NE 7 9 4 5 1020.2 1019.6 0.0
29/07:30pm 19.2 18.0 10.2 56 4.9 NNE 7 9 4 5 1020.3 1019.7 0.0
29/07:00pm 19.6 18.1 10.6 56 4.9 N 9 9 5 5 1020.6 1020.0 0.0
29/06:30pm 20.0 19.1 10.7 55 5.1 N 6 7 3 4 1020.4 1019.8 0.0
29/06:00pm 20.3 19.3 10.4 53 5.4 N 6 7 3 4 1020.4 1019.8 0.0
29/05:30pm 22.4 22.4 9.9 45 6.9 CALM 0 0 0 0 1020.3 1019.7 0.0
29/05:00pm 24.9 24.7 10.4 40 8.2 NNE 2 7 1 4 1019.9 1019.3 0.0
29/04:30pm 25.1 23.1 10.2 39 8.4 NW 11 15 6 8 1019.7 1019.1 0.0
29/04:00pm 26.8 25.4 10.9 37 9.1 W 9 13 5 7 1019.5 1018.9 0.0
29/03:30pm 25.7 24.4 11.1 40 8.4 NNE 9 15 5 8 1019.6 1019.0 0.0
29/03:00pm 25.6 23.8 11.0 40 8.3 NNE 11 13 6 7 1019.5 1018.9 0.0
29/02:30pm 25.7 24.2 10.7 39 8.5 E 9 15 5 8 1019.6 1019.0 0.0
29/02:00pm 26.0 24.7 11.4 40 8.4 NNE 9 15 5 8 1019.7 1019.1 0.0
29/01:30pm 26.5 26.2 11.4 39 8.7 ENE 4 13 2 7 1020.2 1019.6 0.0
29/01:00pm 26.0 25.6 11.0 39 8.6 S 4 9 2 5 1020.6 1020.0 0.0
29/12:30pm 25.0 24.2 11.2 42 7.9 S 6 9 3 5 1021.3 1020.7 0.0
29/12:00pm 24.4 23.7 11.4 44 7.4 SSE 6 9 3 5 1021.8 1021.2 0.0
29/11:30am 24.4 23.1 11.4 44 7.4 SSW 9 13 5 7 1022.7 1022.2 0.0
29/11:00am 23.0 22.2 11.7 49 6.4 SSE 7 9 4 5 1023.1 1022.5 0.0
29/10:30am 21.9 21.0 11.3 51 6.0 SSE 7 11 4 6 1023.6 1023.0 0.0
29/10:00am 20.6 19.7 11.2 55 5.2 SSE 7 9 4 5 1024.0 1023.4 0.0
29/09:30am 19.8 18.9 10.8 56 5.0 E 6 9 3 5 1024.1 1023.5 0.0
29/09:00am 18.0 16.9 9.9 59 4.3 S 6 9 3 5 1024.4 1023.8 0.0
29/08:30am 16.4 15.1 9.8 65 3.5 SSW 7 9 4 5 1024.5 1023.9 0.0
29/08:00am 14.4 13.8 10.4 77 2.1 NW 4 9 2 5 1024.4 1023.8 0.0
29/07:30am 11.1 10.9 9.2 88 1.0 CALM 0 6 0 3 1024.1 1023.5 0.0
29/07:00am 9.3 7.3 8.7 96 0.3 W 9 11 5 6 1024.2 1023.6 0.0
29/06:30am 7.1 5.2 6.8 98 0.1 N 6 6 3 3 1023.6 1023.0 0.0
29/06:00am 6.7 5.8 6.0 95 0.3 CALM 0 0 0 0 1023.4 1022.8 0.0
29/05:30am 6.6 5.6 5.4 92 0.5 CALM 0 0 0 0 1023.3 1022.7 0.0
29/05:00am 7.4 6.1 6.2 92 0.6 WSW 2 6 1 3 1023.2 1022.6 0.0
29/04:30am 8.1 6.2 6.9 92 0.6 WSW 6 7 3 4 1023.3 1022.7 0.0
29/04:00am 8.1 6.2 6.7 91 0.7 SW 6 7 3 4 1023.3 1022.7 0.0
29/03:30am 7.4 6.0 5.5 88 0.9 W 2 7 1 4 1023.1 1022.5 0.0
29/03:00am 9.0 8.3 6.8 86 1.0 CALM 0 0 0 0 1023.0 1022.4 0.0
29/02:30am 9.6 9.0 7.4 86 1.1 CALM 0 0 0 0 1023.4 1022.8 0.0
29/02:00am 9.9 9.3 7.5 85 1.2 CALM 0 0 0 0 1023.6 1023.0 0.0
29/01:30am 9.9 9.3 7.2 83 1.3 CALM 0 0 0 0 1023.7 1023.1 0.0
29/01:00am 10.2 9.5 6.9 80 1.6 CALM 0 0 0 0 1023.5 1022.9 0.0
29/12:30am 11.4 10.9 7.7 78 1.8 CALM 0 6 0 3 1023.6 1023.0 0.0
29/12:00am 11.4 9.7 7.7 78 1.8 WSW 6 7 3 4 1023.9 1023.3 0.0
 
Date/Time
EST
Temp
°C
App
Temp
°C
Dew
Point
Rel
Hum
%
Delta-T
°C
Wind Press
QNH
hPa
Press
MSL
hPa
Rain
since 9 am
mm
Dir
 
Spd
km/h
Gust
km/h
Spd
kts
Gust
kts
28/11:30pm 11.5 10.2 7.8 78 1.8 SW 4 6 2 3 1023.9 1023.3 0.0
28/11:00pm 12.0 11.1 7.7 75 2.1 WSW 2 7 1 4 1023.9 1023.3 0.0
28/10:30pm 12.3 11.4 7.6 73 2.3 WSW 2 6 1 3 1024.0 1023.4 0.0
28/10:00pm 13.4 11.5 7.6 68 2.9 SW 7 9 4 5 1024.1 1023.5 0.0
28/09:30pm 15.2 13.6 8.0 62 3.7 NE 6 7 3 4 1024.0 1023.4 0.0
28/09:00pm 15.9 13.9 8.6 62 3.8 NNE 9 11 5 6 1023.8 1023.2 0.0
28/08:30pm 16.0 13.9 8.2 60 4.0 NNE 9 11 5 6 1023.7 1023.1 0.0
28/08:00pm 14.9 12.5 7.2 60 3.8 NNE 9 11 5 6 1023.4 1022.8 0.0
28/07:30pm 15.6 13.3 7.4 58 4.2 NNE 9 11 5 6 1023.3 1022.7 0.0
28/07:00pm 16.9 15.0 7.5 54 4.8 ENE 7 9 4 5 1023.2 1022.6 0.0
28/06:30pm 18.1 16.4 7.5 50 5.5 E 6 7 3 4 1023.1 1022.5 0.0
28/06:00pm 18.8 16.8 7.3 47 5.9 E 7 9 4 5 1023.1 1022.5 0.0
28/05:30pm 20.0 18.1 7.4 44 6.6 E 7 9 4 5 1022.8 1022.3 0.0
28/05:00pm 22.9 21.0 7.4 37 8.2 ESE 7 9 4 5 1022.4 1021.9 0.0
28/04:30pm 24.7 22.4 7.4 33 9.3 ESE 9 15 5 8 1022.5 1022.0 0.0
28/04:00pm 25.0 23.4 8.1 34 9.1 SSW 6 9 3 5 1022.6 1022.1 0.0
28/03:30pm 25.2 23.6 8.7 35 9.1 SW 7 13 4 7 1022.6 1022.1 0.0
28/03:00pm 25.0 23.3 8.5 35 9.0 SE 7 11 4 6 1022.6 1022.1 0.0
28/02:30pm 25.5 23.5 8.5 34 9.3 SSW 9 15 5 8 1022.8 1022.3 0.0
28/02:00pm 24.6 22.8 8.1 35 8.9 N 7 11 4 6 1023.0 1022.4 0.0
28/01:30pm 25.0 23.9 10.5 40 8.2 NE 7 13 4 7 1023.4 1022.8 0.0
28/01:00pm 23.4 22.3 10.8 45 7.1 ESE 7 13 4 7 1023.8 1023.2 0.0
28/12:30pm 23.1 22.6 12.1 50 6.3 SSW 6 11 3 6 1024.2 1023.6 0.0
28/12:00pm 22.2 21.7 12.5 54 5.6 S 7 13 4 7 1024.6 1024.1 0.0
28/11:30am 21.5 20.5 12.4 56 5.2 S 9 13 5 7 1025.1 1024.6 0.0
28/11:00am 21.1 21.0 13.8 63 4.3 SSE 7 13 4 7 1025.4 1024.9 0.0
28/10:30am 19.0 19.7 15.5 80 2.1 ESE 6 11 3 6 1026.0 1025.4 0.0
28/10:10am 17.6 18.2 15.9 90 1.0 ENE 7 13 4 7 1026.2 1025.6 0.0
28/10:00am 17.3 18.3 16.8 97 0.3 ESE 7 11 4 6 1026.3 1025.7 0.0
28/09:52am 16.5 17.4 16.2 98 0.2 ESE 6 9 3 5 1026.4 1025.8 0.0
28/09:48am 15.4 15.9 15.1 98 0.2 E 6 9 3 5 1026.4 1025.8 0.0
28/09:30am 15.3 16.5 15.0 98 0.2 SSE 2 6 1 3 1026.6 1026.0 0.0
28/09:00am 14.7 15.4 14.4 98 0.2 SSW 4 7 2 4 1026.5 1025.9 0.2

Other Formats:

Comma delimited format used in spreadsheet applications
http://www.bom.gov.au/fwo/IDN60801/IDN60801.95754.axf

JavaScript Object Notation format (JSON) in row-major order
http://www.bom.gov.au/fwo/IDN60801/IDN60801.95754.json